createdAt,value
2022-09-22T17:20:13.405Z,8.10
2022-09-22T17:22:41.822Z,8.10
2022-09-22T17:25:10.698Z,7.90
2022-09-22T17:27:38.921Z,7.80
2022-09-22T17:31:07.586Z,7.70
2022-09-22T17:33:37.311Z,7.70
2022-09-22T17:36:06.724Z,7.60
2022-09-22T17:38:38.197Z,7.50
2022-09-22T17:41:10.351Z,7.50
2022-09-22T17:43:40.439Z,7.40
2022-09-22T17:46:13.059Z,7.30
2022-09-22T17:48:58.727Z,7.20
2022-09-22T17:51:52.009Z,7.10
2022-09-22T17:54:40.127Z,7.00
2022-09-22T17:57:09.436Z,6.90
2022-09-22T17:59:38.300Z,6.80
2022-09-22T18:02:08.842Z,6.80
2022-09-22T18:04:37.360Z,6.70
2022-09-22T18:07:07.058Z,6.60
2022-09-22T18:09:35.934Z,6.50
2022-09-22T18:12:05.349Z,6.40
2022-09-22T18:14:34.389Z,6.40
2022-09-22T18:17:06.639Z,6.40
2022-09-22T18:19:36.782Z,6.30
2022-09-22T18:22:06.199Z,6.20
2022-09-22T18:24:34.316Z,6.20
2022-09-22T18:27:03.897Z,6.10
2022-09-22T18:29:32.520Z,6.10
2022-09-22T18:32:00.806Z,6.00
2022-09-22T18:34:32.031Z,6.00
2022-09-22T18:37:03.261Z,5.90
2022-09-22T18:39:32.246Z,5.90
2022-09-22T18:42:01.075Z,5.80
2022-09-22T18:44:29.248Z,5.80
2022-09-22T18:47:01.192Z,5.70
2022-09-22T18:49:32.077Z,5.70
2022-09-22T18:52:02.579Z,5.60
2022-09-22T18:54:31.389Z,5.50
2022-09-22T18:56:59.447Z,5.50
2022-09-22T18:59:28.434Z,5.40
2022-09-22T19:01:56.832Z,5.30
2022-09-22T19:04:27.021Z,5.30
2022-09-22T19:07:14.699Z,5.30
2022-09-22T19:09:44.876Z,5.30
2022-09-22T19:12:13.264Z,5.20
2022-09-22T19:14:42.429Z,5.20
2022-09-22T19:17:11.982Z,5.20
2022-09-22T19:19:42.198Z,5.20
2022-09-22T19:22:13.921Z,5.20
2022-09-22T19:24:44.798Z,5.10
2022-09-22T19:27:14.860Z,5.10
2022-09-22T19:29:43.042Z,5.00
2022-09-22T19:32:11.115Z,5.00
2022-09-22T19:34:39.245Z,4.90
2022-09-22T19:37:07.958Z,4.90
2022-09-22T19:39:36.034Z,4.80
2022-09-22T19:43:23.712Z,4.70
2022-09-22T19:45:52.260Z,4.70
2022-09-22T19:48:20.465Z,4.50
2022-09-22T19:50:48.997Z,4.50
2022-09-22T19:53:17.256Z,4.50
2022-09-22T19:55:45.388Z,4.50
2022-09-22T19:58:13.495Z,4.40
2022-09-22T20:03:00.719Z,4.40
2022-09-22T20:05:31.523Z,4.30
2022-09-22T20:08:01.458Z,4.30
2022-09-22T20:10:31.541Z,4.30
2022-09-22T20:13:00.023Z,4.30
2022-09-22T20:15:28.780Z,4.20
2022-09-22T20:17:58.281Z,4.20
2022-09-22T20:20:26.926Z,4.20
2022-09-22T20:23:00.202Z,4.10
2022-09-22T20:25:31.640Z,4.00
2022-09-22T20:28:00.418Z,4.00
2022-09-22T20:30:28.640Z,3.90
2022-09-22T20:32:58.313Z,3.90
2022-09-22T20:35:26.545Z,3.80
2022-09-22T20:37:59.307Z,3.80
2022-09-22T20:40:29.051Z,3.70
2022-09-22T20:42:57.204Z,3.70
2022-09-22T20:45:25.365Z,3.70
2022-09-22T20:47:54.178Z,3.70
2022-09-22T20:50:23.672Z,3.70
2022-09-22T20:52:51.789Z,3.60
2022-09-22T20:55:19.974Z,3.50
2022-09-22T20:57:48.055Z,3.40
2022-09-22T21:00:16.419Z,3.40
2022-09-22T21:02:44.714Z,3.40
2022-09-22T21:05:12.885Z,3.40
2022-09-22T21:07:42.354Z,3.40
2022-09-22T21:10:28.361Z,3.30
2022-09-22T21:12:57.663Z,3.30
2022-09-22T21:15:25.877Z,3.30
2022-09-22T21:17:54.094Z,3.20
2022-09-22T21:20:22.335Z,3.20
2022-09-22T21:22:52.752Z,3.20
2022-09-22T21:25:20.925Z,3.10
2022-09-22T21:27:49.054Z,3.10
2022-09-22T21:30:17.339Z,3.10
2022-09-22T21:32:45.480Z,3.00
2022-09-22T21:35:16.641Z,3.10
2022-09-22T21:37:45.749Z,3.00
2022-09-22T21:40:15.393Z,3.00
2022-09-22T21:42:43.540Z,3.00
2022-09-22T21:45:12.964Z,2.90
2022-09-22T21:47:41.136Z,2.90
2022-09-22T21:50:10.272Z,2.80
2022-09-22T21:52:38.593Z,2.80
2022-09-22T21:55:07.795Z,2.80
2022-09-22T21:57:37.185Z,2.80
2022-09-22T22:00:07.505Z,2.80
2022-09-22T22:02:53.802Z,2.70
2022-09-22T22:05:21.844Z,2.70
2022-09-22T22:07:49.959Z,2.70
2022-09-22T22:10:18.237Z,2.70
2022-09-22T22:12:47.639Z,2.60
2022-09-22T22:15:15.849Z,2.60
2022-09-22T22:17:43.892Z,2.60
2022-09-22T22:20:11.953Z,2.50
2022-09-22T22:22:39.996Z,2.50
2022-09-22T22:25:12.666Z,2.50
2022-09-22T22:27:40.988Z,2.40
2022-09-22T22:30:13.299Z,2.40
2022-09-22T22:32:42.165Z,2.30
2022-09-22T22:35:11.633Z,2.30
2022-09-22T22:37:39.993Z,2.20
2022-09-22T22:40:08.998Z,2.20
2022-09-22T22:42:37.066Z,2.10
2022-09-22T22:45:06.652Z,2.10
2022-09-22T22:47:36.068Z,2.00
2022-09-22T22:50:04.132Z,1.90
2022-09-22T22:52:32.414Z,1.90
2022-09-22T22:55:00.490Z,1.80
2022-09-22T22:57:29.025Z,1.80
2022-09-22T22:59:58.075Z,1.70
2022-09-22T23:02:26.308Z,1.60
2022-09-22T23:05:01.142Z,1.60
2022-09-22T23:07:29.400Z,1.60
2022-09-22T23:10:06.381Z,1.50
2022-09-22T23:12:35.077Z,1.40
2022-09-22T23:15:03.167Z,1.30
2022-09-22T23:17:32.051Z,1.30
2022-09-22T23:20:01.532Z,1.20
2022-09-22T23:22:30.646Z,1.20
2022-09-22T23:24:58.969Z,1.10
2022-09-22T23:27:28.357Z,1.10
2022-09-22T23:29:57.227Z,1.10
2022-09-22T23:32:25.591Z,1.00
2022-09-22T23:34:53.745Z,1.00
2022-09-22T23:37:24.797Z,1.00
2022-09-22T23:39:53.188Z,1.00
2022-09-22T23:42:21.270Z,1.10
2022-09-22T23:44:49.394Z,1.10
2022-09-22T23:47:17.490Z,1.00
2022-09-22T23:49:46.237Z,1.00
2022-09-22T23:52:14.234Z,1.00
2022-09-22T23:54:44.724Z,1.00
2022-09-22T23:57:12.822Z,1.00
2022-09-22T23:59:40.862Z,1.00
